Decoded Metar for LFOC (CHATEAUDUN in FRANCE) (IATA:N/A) | Meteo·Mobile Aviation Weather
aviador You're here:

LFOC Decoded Metar

CHATEAUDUN in FRANCE
Report Time2019-04-20 10:30:00
UTC Time2019-04-20 11:01:03
Flight Rules vfr VFR
Wind050° at 12 kt
W.Decomp.*RWY 10: 7.9 kt HW 9.1 kt LCW
Visibility9999 m
Phenomena:N/A
Clouds:N/A
Expected CloudBase > 5,200 ft AGL from Temp-Dew spread
CeilingNone
Temp23°C (ISA +9)
Dew Point10°C (44% RH)
AAT18.7°C
QNH1025 hPa
Density Alt1,207 ft
Elevation417 ft
Report Wrong Elevation
Raw Report
METAR LFOC 201030Z AUTO 05012KT CAVOK 23/10 Q1025=

Extra information for LFOC:More info

Metar Taf Metar & Taf Last 4 Metars F.Rules Stats Wind Profile Meteogram Temp Stats Airport Information Weather charts Add Link Nearby VenuesMetar ALERT Operation Metar Decoded Social comments